createdAt,value
2019-04-30T00:00:39.346Z,4.87
2019-04-30T00:03:18.030Z,4.83
2019-04-30T00:05:53.881Z,4.07
2019-04-30T00:08:30.184Z,4.33
2019-04-30T00:11:01.689Z,4.90
2019-04-30T00:13:35.864Z,5.30
2019-04-30T00:16:09.622Z,5.50
2019-04-30T00:18:55.446Z,5.03
2019-04-30T00:21:18.897Z,4.70
2019-04-30T00:23:52.589Z,5.47
2019-04-30T00:26:26.155Z,5.10
2019-04-30T00:28:59.747Z,4.93
2019-04-30T00:31:34.911Z,5.80
2019-04-30T00:34:08.578Z,5.57
2019-04-30T00:36:42.092Z,5.20
2019-04-30T00:39:16.751Z,4.60
2019-04-30T00:41:51.677Z,4.93
2019-04-30T00:44:28.383Z,3.93
2019-04-30T00:47:04.295Z,4.50
2019-04-30T00:49:35.798Z,5.17
2019-04-30T00:52:09.284Z,4.03
2019-04-30T00:54:42.799Z,3.37
2019-04-30T00:57:16.369Z,3.97
2019-04-30T00:59:50.035Z,4.27
2019-04-30T01:02:37.392Z,2.97
2019-04-30T01:05:12.790Z,2.90
2019-04-30T01:07:50.183Z,3.00
2019-04-30T01:10:24.770Z,3.53
2019-04-30T01:12:59.872Z,3.90
2019-04-30T01:15:33.086Z,4.07
2019-04-30T01:18:06.980Z,4.13
2019-04-30T01:20:40.758Z,4.27
2019-04-30T01:23:20.917Z,4.83
2019-04-30T01:25:55.003Z,7.20
2019-04-30T01:28:29.014Z,8.97
2019-04-30T01:31:02.789Z,10.37
2019-04-30T01:33:36.363Z,11.33
2019-04-30T01:36:13.347Z,11.40
2019-04-30T01:38:51.035Z,11.30
2019-04-30T01:41:27.368Z,11.93
2019-04-30T01:43:58.493Z,9.00
2019-04-30T01:46:32.105Z,9.57
2019-04-30T01:49:05.672Z,12.07
2019-04-30T01:51:39.260Z,12.53
2019-04-30T01:54:13.770Z,14.37
2019-04-30T01:57:01.608Z,14.93
2019-04-30T01:59:52.864Z,14.83
2019-04-30T02:02:28.617Z,14.20
2019-04-30T02:05:02.212Z,15.23
2019-04-30T02:07:35.854Z,15.70
2019-04-30T02:10:11.364Z,13.73
2019-04-30T02:12:44.952Z,13.03
2019-04-30T02:15:19.257Z,9.23
2019-04-30T02:17:52.872Z,8.70
2019-04-30T02:20:28.510Z,8.50
2019-04-30T02:23:01.779Z,8.30
2019-04-30T02:25:35.376Z,7.70
2019-04-30T02:28:09.008Z,8.60
2019-04-30T02:30:43.422Z,8.73
2019-04-30T02:33:19.541Z,8.13
2019-04-30T02:35:53.886Z,9.43
2019-04-30T02:38:31.896Z,9.07
2019-04-30T02:41:06.205Z,9.47
2019-04-30T02:43:41.911Z,10.27
2019-04-30T02:46:16.343Z,9.33
2019-04-30T02:48:52.675Z,9.40
2019-04-30T02:51:29.952Z,8.97
2019-04-30T02:54:06.645Z,8.23
2019-04-30T02:56:43.086Z,8.20
2019-04-30T02:59:16.693Z,8.07
2019-04-30T03:01:50.395Z,8.67
2019-04-30T03:04:24.046Z,8.80
2019-04-30T03:06:59.882Z,7.73
2019-04-30T03:09:33.566Z,8.73
2019-04-30T03:12:08.694Z,9.53
2019-04-30T03:14:42.340Z,8.67
2019-04-30T03:17:20.941Z,8.47
2019-04-30T03:20:04.939Z,7.67
2019-04-30T03:22:39.908Z,9.63
2019-04-30T03:25:13.612Z,9.17
2019-04-30T03:27:49.840Z,10.80
2019-04-30T03:30:24.727Z,9.70
2019-04-30T03:33:02.153Z,10.83
2019-04-30T03:35:33.615Z,8.33
2019-04-30T03:38:09.454Z,8.60
2019-04-30T03:40:42.421Z,8.23
2019-04-30T03:43:15.962Z,9.70
2019-04-30T03:45:50.030Z,9.07
2019-04-30T03:48:23.731Z,10.30
2019-04-30T03:50:58.566Z,10.50
2019-04-30T03:53:32.475Z,11.03
2019-04-30T03:56:06.214Z,11.10
2019-04-30T03:58:40.095Z,11.10
2019-04-30T04:01:19.634Z,10.53
2019-04-30T04:04:11.158Z,11.00
2019-04-30T04:07:00.092Z,11.20
2019-04-30T04:09:50.103Z,11.43
2019-04-30T04:12:24.763Z,12.33
2019-04-30T04:15:03.304Z,12.37
2019-04-30T04:17:34.201Z,12.23
2019-04-30T04:20:10.577Z,12.67
2019-04-30T04:22:43.267Z,10.70
2019-04-30T04:25:20.412Z,11.40
2019-04-30T04:27:53.258Z,12.27
2019-04-30T04:30:29.788Z,12.13
2019-04-30T04:33:02.604Z,13.70
2019-04-30T04:35:36.164Z,12.67
2019-04-30T04:38:12.303Z,12.40
2019-04-30T04:40:45.031Z,12.03
2019-04-30T04:43:20.154Z,11.83
2019-04-30T04:45:53.988Z,10.57
2019-04-30T04:48:29.742Z,10.30
2019-04-30T04:51:02.891Z,9.40
2019-04-30T04:53:37.157Z,10.53
2019-04-30T04:56:11.251Z,10.80
2019-04-30T04:58:44.923Z,10.37
2019-04-30T05:01:20.358Z,9.87
2019-04-30T05:03:53.673Z,10.30
2019-04-30T05:06:29.654Z,11.63
2019-04-30T05:09:02.757Z,11.10
2019-04-30T05:11:36.559Z,9.70
2019-04-30T05:14:11.031Z,8.97
2019-04-30T05:16:44.766Z,9.13
2019-04-30T05:19:18.695Z,8.73
2019-04-30T05:21:52.341Z,8.47
2019-04-30T05:24:25.859Z,9.20
2019-04-30T05:26:59.356Z,11.37
2019-04-30T05:29:33.023Z,12.03
2019-04-30T05:32:06.518Z,12.87
2019-04-30T05:34:40.046Z,13.30
2019-04-30T05:37:13.624Z,13.77
2019-04-30T05:39:48.814Z,14.20
2019-04-30T05:42:22.386Z,12.93
2019-04-30T05:44:55.655Z,13.23
2019-04-30T05:47:29.255Z,12.10
2019-04-30T05:50:05.290Z,10.00
2019-04-30T05:52:39.899Z,9.88
2019-04-30T05:55:19.997Z,7.72
2019-04-30T05:57:56.486Z,7.22
2019-04-30T06:00:30.691Z,7.10
2019-04-30T06:03:04.987Z,7.10
2019-04-30T06:05:39.468Z,6.75
2019-04-30T06:08:15.309Z,6.50
2019-04-30T06:10:53.781Z,6.70
2019-04-30T06:13:32.666Z,6.95
2019-04-30T06:16:08.796Z,6.65
2019-04-30T06:18:42.942Z,6.00
2019-04-30T06:21:21.305Z,5.70
2019-04-30T06:23:53.103Z,5.92
2019-04-30T06:26:29.561Z,5.70
2019-04-30T06:29:03.824Z,5.42
2019-04-30T06:31:40.122Z,5.37
2019-04-30T06:34:14.078Z,6.05
2019-04-30T06:36:53.152Z,5.10
2019-04-30T06:39:24.683Z,4.97
2019-04-30T06:42:06.477Z,5.45
2019-04-30T06:44:39.319Z,5.55
2019-04-30T06:47:12.703Z,4.95
2019-04-30T06:49:48.768Z,5.12
2019-04-30T06:52:23.593Z,4.87
2019-04-30T06:54:59.652Z,5.03
2019-04-30T06:57:34.010Z,5.53
2019-04-30T07:00:09.853Z,5.17
2019-04-30T07:03:23.014Z,5.12
2019-04-30T07:08:54.856Z,4.93
2019-04-30T07:11:23.443Z,5.03
2019-04-30T07:14:02.571Z,5.40
2019-04-30T07:16:36.813Z,4.92
2019-04-30T07:19:11.130Z,5.10
2019-04-30T07:21:45.404Z,5.85
2019-04-30T07:24:21.037Z,4.97
2019-04-30T07:27:05.581Z,4.85
2019-04-30T07:29:39.809Z,5.15
2019-04-30T07:32:16.488Z,5.42
2019-04-30T07:34:50.676Z,5.70
2019-04-30T07:38:20.146Z,5.50
2019-04-30T07:40:54.377Z,5.53
2019-04-30T07:43:29.077Z,5.65
2019-04-30T07:46:03.395Z,4.92
2019-04-30T07:48:40.269Z,4.22
2019-04-30T07:51:15.301Z,4.58
2019-04-30T07:53:50.464Z,3.60
2019-04-30T07:56:28.388Z,3.72
2019-04-30T07:59:20.391Z,3.30
2019-04-30T08:02:06.311Z,3.85
2019-04-30T08:04:59.884Z,4.70
2019-04-30T08:07:34.238Z,4.20
2019-04-30T08:10:18.796Z,5.25
2019-04-30T08:12:53.163Z,4.50
2019-04-30T08:15:34.963Z,5.78
2019-04-30T08:18:09.190Z,5.72
2019-04-30T08:23:31.503Z,4.37
2019-04-30T08:25:55.340Z,4.50
2019-04-30T08:28:30.463Z,4.70
2019-04-30T08:31:05.356Z,4.97
2019-04-30T08:33:40.235Z,5.08
2019-04-30T08:36:14.641Z,5.42
2019-04-30T08:38:49.587Z,4.65
2019-04-30T08:41:24.170Z,5.90
2019-04-30T08:43:59.737Z,4.35
2019-04-30T08:46:34.266Z,3.92
2019-04-30T08:49:10.713Z,4.37
2019-04-30T08:51:45.290Z,3.58
2019-04-30T08:54:27.125Z,3.98
2019-04-30T08:57:01.405Z,3.67
2019-04-30T08:59:49.351Z,3.55
2019-04-30T09:02:23.201Z,3.23
2019-04-30T09:05:00.495Z,3.20
2019-04-30T09:07:55.819Z,3.47
2019-04-30T09:10:49.055Z,4.47
2019-04-30T09:13:23.087Z,3.70
2019-04-30T09:16:09.356Z,4.17
2019-04-30T09:18:44.991Z,4.37
2019-04-30T09:21:27.330Z,4.10
2019-04-30T09:24:01.197Z,4.03
2019-04-30T09:26:54.580Z,4.63
2019-04-30T09:29:29.242Z,4.00
2019-04-30T09:32:10.654Z,4.20
2019-04-30T09:34:44.603Z,3.70
2019-04-30T09:37:22.812Z,4.40
2019-04-30T09:39:56.767Z,4.03
2019-04-30T09:42:30.687Z,4.00
2019-04-30T09:45:11.538Z,5.47
2019-04-30T09:47:45.573Z,4.17
2019-04-30T09:50:19.583Z,4.27
2019-04-30T09:53:00.325Z,3.80
2019-04-30T09:55:34.234Z,3.97
2019-04-30T09:58:16.887Z,4.17
2019-04-30T10:00:50.324Z,4.40
2019-04-30T10:03:27.461Z,4.10
2019-04-30T10:06:02.408Z,4.30
2019-04-30T10:08:47.843Z,4.70
2019-04-30T10:11:16.287Z,4.62
2019-04-30T10:13:50.164Z,4.57
2019-04-30T10:16:31.350Z,4.40
2019-04-30T10:19:08.443Z,4.33
2019-04-30T10:21:59.951Z,4.85
2019-04-30T10:24:39.209Z,5.58
2019-04-30T10:27:30.109Z,5.58
2019-04-30T10:30:06.803Z,5.80
2019-04-30T10:32:42.389Z,5.53
2019-04-30T10:35:18.318Z,5.05
2019-04-30T10:37:54.256Z,5.12
2019-04-30T10:40:28.829Z,4.92
2019-04-30T10:43:23.176Z,3.92
2019-04-30T10:45:58.586Z,4.25
2019-04-30T10:48:51.086Z,4.67
2019-04-30T10:51:25.619Z,7.33
2019-04-30T10:54:02.258Z,8.83
2019-04-30T10:56:36.619Z,8.55
2019-04-30T10:59:11.121Z,8.68
2019-04-30T11:01:45.484Z,9.05
2019-04-30T11:04:32.536Z,9.08
2019-04-30T11:07:08.634Z,8.48
2019-04-30T11:10:02.127Z,9.23
2019-04-30T11:12:36.373Z,9.40
2019-04-30T11:15:11.220Z,9.63
2019-04-30T11:17:46.693Z,12.78
2019-04-30T11:21:01.768Z,13.20
2019-04-30T11:23:36.375Z,12.55
2019-04-30T11:26:24.243Z,13.75
2019-04-30T11:28:58.800Z,13.98
2019-04-30T11:31:40.895Z,15.08
2019-04-30T11:34:15.367Z,12.55
2019-04-30T11:37:02.404Z,14.87
2019-04-30T11:39:36.662Z,15.23
2019-04-30T11:42:24.453Z,15.53
2019-04-30T11:44:58.759Z,15.88
2019-04-30T11:47:34.387Z,14.68
2019-04-30T11:50:11.344Z,12.95
2019-04-30T11:52:46.946Z,15.38
2019-04-30T11:55:21.320Z,14.05
2019-04-30T11:57:55.656Z,13.65
2019-04-30T12:00:34.644Z,13.88
2019-04-30T12:03:09.117Z,12.70
2019-04-30T12:05:48.840Z,12.65
2019-04-30T12:08:26.377Z,13.68
2019-04-30T12:13:57.317Z,12.07
2019-04-30T12:16:33.621Z,10.88
2019-04-30T12:19:09.061Z,13.15
2019-04-30T12:21:43.326Z,11.48
2019-04-30T12:24:23.631Z,11.22
2019-04-30T12:26:57.840Z,13.72
2019-04-30T12:30:02.999Z,11.55
2019-04-30T12:32:39.173Z,12.93
2019-04-30T12:35:22.394Z,12.90
2019-04-30T12:37:56.673Z,11.15
2019-04-30T12:40:32.383Z,11.10
2019-04-30T12:43:13.919Z,12.37
2019-04-30T12:46:01.894Z,11.22
2019-04-30T12:48:29.582Z,9.58
2019-04-30T12:51:08.359Z,9.98
2019-04-30T12:53:52.996Z,12.75
2019-04-30T12:59:14.557Z,9.98
2019-04-30T13:01:49.577Z,10.10
2019-04-30T13:04:24.067Z,11.75
2019-04-30T13:07:02.455Z,11.12
2019-04-30T13:09:36.408Z,11.70
2019-04-30T13:12:30.548Z,10.68
2019-04-30T13:15:07.994Z,12.82
2019-04-30T13:17:42.181Z,13.18
2019-04-30T13:20:20.910Z,13.68
2019-04-30T13:22:52.777Z,12.35
2019-04-30T13:25:35.316Z,11.83
2019-04-30T13:28:08.113Z,12.75
2019-04-30T13:30:42.902Z,13.60
2019-04-30T13:33:20.456Z,11.28
2019-04-30T13:36:04.900Z,12.93
2019-04-30T13:41:39.167Z,12.47
2019-04-30T13:44:14.511Z,13.22
2019-04-30T13:46:48.766Z,10.68
2019-04-30T13:49:22.952Z,10.50
2019-04-30T13:52:03.329Z,11.45
2019-04-30T13:54:37.608Z,10.60
2019-04-30T13:57:11.909Z,9.13
2019-04-30T13:59:46.189Z,10.53
2019-04-30T14:02:20.447Z,13.43
2019-04-30T14:04:56.344Z,15.72
2019-04-30T14:07:32.231Z,19.55
2019-04-30T14:10:08.468Z,22.58
2019-04-30T14:13:08.084Z,23.85
2019-04-30T14:15:42.869Z,25.75
2019-04-30T14:18:30.690Z,27.75
2019-04-30T14:21:01.783Z,27.32
2019-04-30T14:23:40.630Z,28.10
2019-04-30T14:26:14.858Z,27.75
2019-04-30T14:28:54.491Z,27.85
2019-04-30T14:31:28.951Z,26.33
2019-04-30T14:34:09.983Z,28.02
2019-04-30T14:36:44.019Z,28.40
2019-04-30T14:39:31.672Z,27.42
2019-04-30T14:42:06.843Z,26.33
2019-04-30T14:44:49.475Z,27.22
2019-04-30T14:47:30.506Z,27.62
2019-04-30T14:50:05.963Z,26.23
2019-04-30T14:52:41.870Z,25.90
2019-04-30T14:55:18.747Z,25.65
2019-04-30T14:58:11.683Z,25.57
2019-04-30T15:00:49.636Z,23.92
2019-04-30T15:03:29.490Z,24.10
2019-04-30T15:06:03.951Z,21.82
2019-04-30T15:08:39.390Z,19.98
2019-04-30T15:11:18.890Z,20.23
2019-04-30T15:13:53.035Z,20.52
2019-04-30T15:16:27.298Z,20.77
2019-04-30T15:19:03.251Z,18.37
2019-04-30T15:21:37.539Z,19.73
2019-04-30T15:24:13.385Z,18.55
2019-04-30T15:26:57.093Z,18.40
2019-04-30T15:29:23.669Z,17.73
2019-04-30T15:31:59.280Z,18.05
2019-04-30T15:34:33.828Z,16.37
2019-04-30T15:37:19.088Z,15.43
2019-04-30T15:39:48.846Z,15.70
2019-04-30T15:42:30.643Z,14.98
2019-04-30T15:45:06.566Z,14.63
2019-04-30T15:47:50.054Z,14.50
2019-04-30T15:50:24.398Z,13.72
2019-04-30T15:53:09.445Z,12.65
2019-04-30T15:55:43.819Z,12.93
2019-04-30T16:01:11.902Z,13.05
2019-04-30T16:03:47.771Z,12.85
2019-04-30T16:06:21.961Z,12.58
2019-04-30T16:08:57.826Z,13.30
2019-04-30T16:11:49.897Z,13.03
2019-04-30T16:14:25.820Z,12.85
2019-04-30T16:17:13.697Z,12.68
2019-04-30T16:19:48.159Z,12.33
2019-04-30T16:22:22.487Z,13.35
2019-04-30T16:24:56.781Z,12.37
2019-04-30T16:27:30.993Z,12.18
2019-04-30T16:30:06.914Z,12.37
2019-04-30T16:32:41.130Z,12.40
2019-04-30T16:35:19.677Z,12.70
2019-04-30T16:37:55.494Z,12.37
2019-04-30T16:40:41.714Z,12.58
2019-04-30T16:43:15.927Z,13.93
2019-04-30T16:45:53.346Z,13.72
2019-04-30T16:48:28.989Z,12.10
2019-04-30T16:51:03.266Z,12.33
2019-04-30T16:53:42.238Z,12.93
2019-04-30T16:56:18.459Z,15.43
2019-04-30T16:59:06.650Z,13.72
2019-04-30T17:01:41.040Z,13.43
2019-04-30T17:04:19.091Z,13.38
2019-04-30T17:07:03.709Z,12.68
2019-04-30T17:09:39.584Z,13.35
2019-04-30T17:12:19.696Z,13.20
2019-04-30T17:15:13.825Z,12.70
2019-04-30T17:17:49.603Z,11.65
2019-04-30T17:20:51.461Z,11.63
2019-04-30T17:23:33.814Z,12.37
2019-04-30T17:26:12.349Z,12.05
2019-04-30T17:28:49.992Z,11.97
2019-04-30T17:31:24.526Z,12.37
2019-04-30T17:33:58.722Z,12.15
2019-04-30T17:36:33.024Z,11.30
2019-04-30T17:39:21.018Z,11.00
2019-04-30T17:42:14.742Z,11.88
2019-04-30T17:44:58.392Z,11.88
2019-04-30T17:47:30.662Z,11.88
2019-04-30T17:50:08.977Z,11.68
2019-04-30T17:52:43.455Z,11.65
2019-04-30T17:55:35.897Z,12.80
2019-04-30T17:58:10.041Z,13.00
2019-04-30T18:00:46.352Z,13.18
2019-04-30T18:03:20.665Z,13.05
2019-04-30T18:06:09.020Z,12.73
2019-04-30T18:08:43.374Z,13.43
2019-04-30T18:11:19.935Z,13.50
2019-04-30T18:13:53.746Z,14.35
2019-04-30T18:16:28.694Z,14.50
2019-04-30T18:19:18.790Z,14.87
2019-04-30T18:21:59.553Z,13.70
2019-04-30T18:24:52.921Z,13.10
2019-04-30T18:27:29.464Z,13.70
2019-04-30T18:30:11.884Z,11.97
2019-04-30T18:32:46.162Z,11.63
2019-04-30T18:35:20.469Z,11.45
2019-04-30T18:38:12.940Z,12.50
2019-04-30T18:40:47.159Z,11.80
2019-04-30T18:43:21.403Z,11.08
2019-04-30T18:45:54.887Z,11.35
2019-04-30T18:48:29.492Z,11.05
2019-04-30T18:51:18.915Z,11.90
2019-04-30T18:53:39.909Z,10.53
2019-04-30T18:56:14.990Z,10.65
2019-04-30T18:58:49.409Z,11.33
2019-04-30T19:01:23.690Z,11.12
2019-04-30T19:03:58.468Z,11.97
2019-04-30T19:06:36.394Z,11.90
2019-04-30T19:09:21.503Z,11.70
2019-04-30T19:11:58.905Z,12.15
2019-04-30T19:14:49.119Z,12.73
2019-04-30T19:20:12.778Z,11.45
2019-04-30T19:22:51.668Z,11.08
2019-04-30T19:25:26.057Z,12.47
2019-04-30T19:28:12.160Z,11.45
2019-04-30T19:30:55.064Z,11.53
2019-04-30T19:33:20.087Z,12.23
2019-04-30T19:36:06.977Z,12.23
2019-04-30T19:38:41.259Z,12.05
2019-04-30T19:41:15.482Z,12.30
2019-04-30T19:43:50.168Z,11.63
2019-04-30T19:46:24.449Z,11.73
2019-04-30T19:48:58.733Z,11.73
2019-04-30T19:51:32.922Z,11.85
2019-04-30T19:54:14.590Z,11.78
2019-04-30T19:56:50.168Z,12.13
2019-04-30T19:59:50.215Z,12.35
2019-04-30T20:02:24.400Z,12.07
2019-04-30T20:04:59.036Z,12.07
2019-04-30T20:07:42.058Z,13.15
2019-04-30T20:10:16.421Z,12.23
2019-04-30T20:12:53.386Z,13.03
2019-04-30T20:15:29.665Z,13.60
2019-04-30T20:18:09.011Z,13.40
2019-04-30T20:20:45.143Z,13.25
2019-04-30T20:23:19.359Z,12.80
2019-04-30T20:25:54.323Z,12.68
2019-04-30T20:28:38.507Z,12.73
2019-04-30T20:31:04.658Z,13.68
2019-04-30T20:33:42.740Z,13.28
2019-04-30T20:36:18.863Z,13.85
2019-04-30T20:39:02.642Z,13.60
2019-04-30T20:41:36.822Z,13.88
2019-04-30T20:44:25.296Z,13.60
2019-04-30T20:47:24.202Z,13.60
2019-04-30T20:49:58.421Z,14.33
2019-04-30T20:52:32.613Z,14.45
2019-04-30T20:55:25.824Z,14.98
2019-04-30T20:58:00.055Z,15.45
2019-04-30T21:00:34.480Z,15.70
2019-04-30T21:03:09.721Z,16.48
2019-04-30T21:05:44.043Z,16.15
2019-04-30T21:08:18.296Z,14.95
2019-04-30T21:10:56.721Z,15.93
2019-04-30T21:13:31.484Z,16.30
2019-04-30T21:16:17.461Z,14.95
2019-04-30T21:18:51.690Z,15.75
2019-04-30T21:21:28.810Z,15.68
2019-04-30T21:24:03.219Z,15.35
2019-04-30T21:26:56.856Z,15.18
2019-04-30T21:29:31.053Z,15.85
2019-04-30T21:35:01.050Z,15.30
2019-04-30T21:37:47.916Z,15.70
2019-04-30T21:40:22.276Z,15.70
2019-04-30T21:42:58.671Z,16.57
2019-04-30T21:45:32.831Z,17.95
2019-04-30T21:48:09.017Z,18.00
2019-04-30T21:50:43.391Z,16.55
2019-04-30T21:53:23.659Z,17.42
2019-04-30T21:55:59.396Z,16.20
2019-04-30T21:58:48.750Z,16.87
2019-04-30T22:01:23.922Z,17.87
2019-04-30T22:03:59.788Z,17.52
2019-04-30T22:06:46.535Z,16.77
2019-04-30T22:09:21.306Z,17.75
2019-04-30T22:11:55.653Z,16.62
2019-04-30T22:14:36.176Z,16.23
2019-04-30T22:17:10.913Z,16.60
2019-04-30T22:19:51.701Z,17.40
2019-04-30T22:22:26.039Z,17.45
2019-04-30T22:25:00.458Z,17.35
2019-04-30T22:27:49.899Z,18.25
2019-04-30T22:30:24.191Z,17.57
2019-04-30T22:33:16.623Z,17.82
2019-04-30T22:35:55.548Z,17.98
2019-04-30T22:38:43.134Z,18.77
2019-04-30T22:41:25.820Z,18.55
2019-04-30T22:43:59.610Z,18.65
2019-04-30T22:46:34.847Z,19.23
2019-04-30T22:49:08.722Z,19.07
2019-04-30T22:51:42.426Z,20.30
2019-04-30T22:54:20.318Z,21.70
2019-04-30T22:56:53.957Z,21.80
2019-04-30T22:59:29.159Z,22.60
2019-04-30T23:02:04.503Z,25.40
2019-04-30T23:04:40.033Z,25.20
2019-04-30T23:07:22.851Z,26.37
2019-04-30T23:09:56.471Z,26.10
2019-04-30T23:12:30.167Z,26.77
2019-04-30T23:15:09.366Z,26.60
2019-04-30T23:17:43.073Z,26.30
2019-04-30T23:20:17.807Z,25.62
2019-04-30T23:22:59.357Z,25.80
2019-04-30T23:25:32.986Z,27.10
2019-04-30T23:28:06.700Z,26.03
2019-04-30T23:30:46.440Z,26.87
2019-04-30T23:33:20.040Z,26.57
2019-04-30T23:35:53.761Z,26.50
2019-04-30T23:38:39.279Z,25.37
2019-04-30T23:41:12.988Z,25.73
2019-04-30T23:43:46.528Z,24.50
2019-04-30T23:46:23.289Z,25.07
2019-04-30T23:49:01.647Z,24.87
2019-04-30T23:51:35.427Z,23.13
2019-04-30T23:54:14.410Z,25.65
2019-04-30T23:56:48.079Z,23.53
2019-04-30T23:59:24.722Z,24.57
